sensor_id;sensor_type;location;lat;lon;timestamp;temperature;humidity
67901;DHT22;54700;51.796;10.956;2023-12-14T00:01:30;5.20;99.90
67901;DHT22;54700;51.796;10.956;2023-12-14T00:03:59;5.10;99.90
67901;DHT22;54700;51.796;10.956;2023-12-14T00:06:28;5.10;99.90
67901;DHT22;54700;51.796;10.956;2023-12-14T00:08:56;5.00;99.90
67901;DHT22;54700;51.796;10.956;2023-12-14T00:11:23;5.00;99.90
67901;DHT22;54700;51.796;10.956;2023-12-14T00:13:50;5.00;99.90
67901;DHT22;54700;51.796;10.956;2023-12-14T00:16:17;5.00;99.90
67901;DHT22;54700;51.796;10.956;2023-12-14T00:18:44;5.00;99.90
67901;DHT22;54700;51.796;10.956;2023-12-14T00:21:11;5.00;99.90
67901;DHT22;54700;51.796;10.956;2023-12-14T00:23:38;4.90;99.90
67901;DHT22;54700;51.796;10.956;2023-12-14T00:26:06;5.00;99.90
67901;DHT22;54700;51.796;10.956;2023-12-14T00:28:33;4.90;99.90
67901;DHT22;54700;51.796;10.956;2023-12-14T00:31:00;4.90;99.90
67901;DHT22;54700;51.796;10.956;2023-12-14T00:33:30;4.90;99.90
67901;DHT22;54700;51.796;10.956;2023-12-14T00:35:57;4.90;99.90
67901;DHT22;54700;51.796;10.956;2023-12-14T00:38:24;4.90;99.90
67901;DHT22;54700;51.796;10.956;2023-12-14T00:40:51;4.90;99.90
67901;DHT22;54700;51.796;10.956;2023-12-14T00:43:19;4.90;99.90
67901;DHT22;54700;51.796;10.956;2023-12-14T00:45:46;4.90;99.90
67901;DHT22;54700;51.796;10.956;2023-12-14T00:48:13;4.90;99.90
67901;DHT22;54700;51.796;10.956;2023-12-14T00:50:40;4.90;99.90
67901;DHT22;54700;51.796;10.956;2023-12-14T00:53:07;4.90;99.90
67901;DHT22;54700;51.796;10.956;2023-12-14T00:55:34;4.90;99.90
67901;DHT22;54700;51.796;10.956;2023-12-14T00:58:01;4.80;99.90
67901;DHT22;54700;51.796;10.956;2023-12-14T01:00:29;4.80;99.90
67901;DHT22;54700;51.796;10.956;2023-12-14T01:02:56;4.70;99.90
67901;DHT22;54700;51.796;10.956;2023-12-14T01:05:23;4.70;99.90
67901;DHT22;54700;51.796;10.956;2023-12-14T01:07:50;4.70;99.90
67901;DHT22;54700;51.796;10.956;2023-12-14T01:10:19;4.60;99.90
67901;DHT22;54700;51.796;10.956;2023-12-14T01:12:46;4.60;99.90
67901;DHT22;54700;51.796;10.956;2023-12-14T01:15:13;4.60;99.90
67901;DHT22;54700;51.796;10.956;2023-12-14T01:17:41;4.60;99.90
67901;DHT22;54700;51.796;10.956;2023-12-14T01:20:08;4.50;99.90
67901;DHT22;54700;51.796;10.956;2023-12-14T01:22:36;4.60;99.90
67901;DHT22;54700;51.796;10.956;2023-12-14T01:25:06;4.60;99.90
67901;DHT22;54700;51.796;10.956;2023-12-14T01:27:33;4.50;99.90
67901;DHT22;54700;51.796;10.956;2023-12-14T01:30:00;4.50;99.90
67901;DHT22;54700;51.796;10.956;2023-12-14T01:32:27;4.50;99.90
67901;DHT22;54700;51.796;10.956;2023-12-14T01:34:55;4.50;99.90
67901;DHT22;54700;51.796;10.956;2023-12-14T01:37:22;4.40;99.90
67901;DHT22;54700;51.796;10.956;2023-12-14T01:39:49;4.40;99.90
67901;DHT22;54700;51.796;10.956;2023-12-14T01:42:15;4.40;99.90
67901;DHT22;54700;51.796;10.956;2023-12-14T01:44:42;4.30;99.90
67901;DHT22;54700;51.796;10.956;2023-12-14T01:47:09;4.30;99.90
67901;DHT22;54700;51.796;10.956;2023-12-14T01:49:36;4.30;99.90
67901;DHT22;54700;51.796;10.956;2023-12-14T01:52:04;4.30;99.90
67901;DHT22;54700;51.796;10.956;2023-12-14T01:54:32;4.30;99.90
67901;DHT22;54700;51.796;10.956;2023-12-14T01:56:58;4.30;99.90
67901;DHT22;54700;51.796;10.956;2023-12-14T01:59:25;4.20;99.90
67901;DHT22;54700;51.796;10.956;2023-12-14T02:01:52;4.20;99.90
67901;DHT22;54700;51.796;10.956;2023-12-14T02:04:22;4.20;99.90
67901;DHT22;54700;51.796;10.956;2023-12-14T02:06:50;4.20;99.90
67901;DHT22;54700;51.796;10.956;2023-12-14T02:09:18;4.20;99.90
67901;DHT22;54700;51.796;10.956;2023-12-14T02:11:45;4.20;99.90
67901;DHT22;54700;51.796;10.956;2023-12-14T02:14:12;4.10;99.90
67901;DHT22;54700;51.796;10.956;2023-12-14T02:16:39;4.10;99.90
67901;DHT22;54700;51.796;10.956;2023-12-14T02:19:08;4.10;99.90
67901;DHT22;54700;51.796;10.956;2023-12-14T02:21:35;4.10;99.90
67901;DHT22;54700;51.796;10.956;2023-12-14T02:24:04;4.10;99.90
67901;DHT22;54700;51.796;10.956;2023-12-14T02:26:30;4.10;99.90
67901;DHT22;54700;51.796;10.956;2023-12-14T02:28:57;4.10;99.90
67901;DHT22;54700;51.796;10.956;2023-12-14T02:31:24;4.10;99.90
67901;DHT22;54700;51.796;10.956;2023-12-14T02:33:51;4.10;99.90
67901;DHT22;54700;51.796;10.956;2023-12-14T02:36:18;4.10;99.90
67901;DHT22;54700;51.796;10.956;2023-12-14T02:38:45;4.20;99.90
67901;DHT22;54700;51.796;10.956;2023-12-14T02:41:13;4.20;99.90
67901;DHT22;54700;51.796;10.956;2023-12-14T02:43:39;4.20;99.90
67901;DHT22;54700;51.796;10.956;2023-12-14T02:46:06;4.20;99.90
67901;DHT22;54700;51.796;10.956;2023-12-14T02:48:34;4.20;99.90
67901;DHT22;54700;51.796;10.956;2023-12-14T02:51:01;4.20;99.90
67901;DHT22;54700;51.796;10.956;2023-12-14T02:53:27;4.20;99.90
67901;DHT22;54700;51.796;10.956;2023-12-14T02:55:54;4.20;99.90
67901;DHT22;54700;51.796;10.956;2023-12-14T02:58:22;4.30;99.90
67901;DHT22;54700;51.796;10.956;2023-12-14T03:00:49;4.30;99.90
67901;DHT22;54700;51.796;10.956;2023-12-14T03:03:16;4.30;99.90
67901;DHT22;54700;51.796;10.956;2023-12-14T03:05:43;4.30;99.90
67901;DHT22;54700;51.796;10.956;2023-12-14T03:08:10;4.30;99.90
67901;DHT22;54700;51.796;10.956;2023-12-14T03:10:36;4.30;99.90
67901;DHT22;54700;51.796;10.956;2023-12-14T03:13:03;4.30;99.90
67901;DHT22;54700;51.796;10.956;2023-12-14T03:15:31;4.40;99.90
67901;DHT22;54700;51.796;10.956;2023-12-14T03:17:58;4.30;99.90
67901;DHT22;54700;51.796;10.956;2023-12-14T03:20:25;4.30;99.90
67901;DHT22;54700;51.796;10.956;2023-12-14T03:22:52;4.30;99.90
67901;DHT22;54700;51.796;10.956;2023-12-14T03:25:19;4.20;99.90
67901;DHT22;54700;51.796;10.956;2023-12-14T03:27:46;4.20;99.90
67901;DHT22;54700;51.796;10.956;2023-12-14T03:30:12;4.20;99.90
67901;DHT22;54700;51.796;10.956;2023-12-14T03:32:41;4.20;99.90
67901;DHT22;54700;51.796;10.956;2023-12-14T03:35:07;4.20;99.90
67901;DHT22;54700;51.796;10.956;2023-12-14T03:37:34;4.10;99.90
67901;DHT22;54700;51.796;10.956;2023-12-14T03:40:02;4.10;99.90
67901;DHT22;54700;51.796;10.956;2023-12-14T03:42:29;4.20;99.90
67901;DHT22;54700;51.796;10.956;2023-12-14T03:44:56;4.10;99.90
67901;DHT22;54700;51.796;10.956;2023-12-14T03:47:21;4.10;99.90
67901;DHT22;54700;51.796;10.956;2023-12-14T03:49:50;4.10;99.90
67901;DHT22;54700;51.796;10.956;2023-12-14T03:52:16;4.10;99.90
67901;DHT22;54700;51.796;10.956;2023-12-14T03:54:43;4.10;99.90
67901;DHT22;54700;51.796;10.956;2023-12-14T03:57:10;4.10;99.90
67901;DHT22;54700;51.796;10.956;2023-12-14T03:59:38;4.00;99.90
67901;DHT22;54700;51.796;10.956;2023-12-14T04:02:05;4.00;99.90
67901;DHT22;54700;51.796;10.956;2023-12-14T04:04:32;3.90;99.90
67901;DHT22;54700;51.796;10.956;2023-12-14T04:07:03;4.00;99.90
67901;DHT22;54700;51.796;10.956;2023-12-14T04:09:30;4.00;99.90
67901;DHT22;54700;51.796;10.956;2023-12-14T04:11:57;3.90;99.90
67901;DHT22;54700;51.796;10.956;2023-12-14T04:14:24;3.90;99.90
67901;DHT22;54700;51.796;10.956;2023-12-14T04:16:51;3.90;99.90
67901;DHT22;54700;51.796;10.956;2023-12-14T04:19:17;3.90;99.90
67901;DHT22;54700;51.796;10.956;2023-12-14T04:21:44;3.90;99.90
67901;DHT22;54700;51.796;10.956;2023-12-14T04:24:12;3.90;99.90
67901;DHT22;54700;51.796;10.956;2023-12-14T04:26:39;3.90;99.90
67901;DHT22;54700;51.796;10.956;2023-12-14T04:29:10;3.90;99.90
67901;DHT22;54700;51.796;10.956;2023-12-14T04:31:37;3.80;99.90
67901;DHT22;54700;51.796;10.956;2023-12-14T04:34:03;3.80;99.90
67901;DHT22;54700;51.796;10.956;2023-12-14T04:36:30;3.70;99.90
67901;DHT22;54700;51.796;10.956;2023-12-14T04:38:57;3.70;99.90
67901;DHT22;54700;51.796;10.956;2023-12-14T04:41:25;3.60;99.90
67901;DHT22;54700;51.796;10.956;2023-12-14T04:43:52;3.60;99.90
67901;DHT22;54700;51.796;10.956;2023-12-14T04:46:19;3.60;99.90
67901;DHT22;54700;51.796;10.956;2023-12-14T04:48:46;3.60;99.90
67901;DHT22;54700;51.796;10.956;2023-12-14T04:51:13;3.60;99.90
67901;DHT22;54700;51.796;10.956;2023-12-14T04:53:39;3.60;99.90
67901;DHT22;54700;51.796;10.956;2023-12-14T04:56:11;3.60;99.90
67901;DHT22;54700;51.796;10.956;2023-12-14T04:58:41;3.60;99.90
67901;DHT22;54700;51.796;10.956;2023-12-14T05:01:08;3.60;99.90
67901;DHT22;54700;51.796;10.956;2023-12-14T05:03:35;3.60;99.90
67901;DHT22;54700;51.796;10.956;2023-12-14T05:06:02;3.60;99.90
67901;DHT22;54700;51.796;10.956;2023-12-14T05:08:30;3.60;99.90
67901;DHT22;54700;51.796;10.956;2023-12-14T05:10:57;3.60;99.90
67901;DHT22;54700;51.796;10.956;2023-12-14T05:13:24;3.60;99.90
67901;DHT22;54700;51.796;10.956;2023-12-14T05:15:52;3.60;99.90
67901;DHT22;54700;51.796;10.956;2023-12-14T05:18:19;3.60;99.90
67901;DHT22;54700;51.796;10.956;2023-12-14T05:20:46;3.50;99.90
67901;DHT22;54700;51.796;10.956;2023-12-14T05:23:14;3.50;99.90
67901;DHT22;54700;51.796;10.956;2023-12-14T05:25:41;3.50;99.90
67901;DHT22;54700;51.796;10.956;2023-12-14T05:28:08;3.50;99.90
67901;DHT22;54700;51.796;10.956;2023-12-14T05:30:38;3.50;99.90
67901;DHT22;54700;51.796;10.956;2023-12-14T05:33:09;3.50;99.90
67901;DHT22;54700;51.796;10.956;2023-12-14T05:35:36;3.50;99.90
67901;DHT22;54700;51.796;10.956;2023-12-14T05:38:02;3.40;99.90
67901;DHT22;54700;51.796;10.956;2023-12-14T05:40:29;3.40;99.90
67901;DHT22;54700;51.796;10.956;2023-12-14T05:42:57;3.40;99.90
67901;DHT22;54700;51.796;10.956;2023-12-14T05:45:24;3.40;99.90
67901;DHT22;54700;51.796;10.956;2023-12-14T05:47:50;3.30;99.90
67901;DHT22;54700;51.796;10.956;2023-12-14T05:50:19;3.40;99.90
67901;DHT22;54700;51.796;10.956;2023-12-14T05:52:47;3.40;99.90
67901;DHT22;54700;51.796;10.956;2023-12-14T05:55:14;3.40;99.90
67901;DHT22;54700;51.796;10.956;2023-12-14T05:57:55;3.40;99.90
67901;DHT22;54700;51.796;10.956;2023-12-14T06:00:29;3.40;99.90
67901;DHT22;54700;51.796;10.956;2023-12-14T06:02:59;3.30;99.90
67901;DHT22;54700;51.796;10.956;2023-12-14T06:05:29;3.30;99.90
67901;DHT22;54700;51.796;10.956;2023-12-14T06:07:59;3.30;99.90
67901;DHT22;54700;51.796;10.956;2023-12-14T06:10:55;3.30;99.90
67901;DHT22;54700;51.796;10.956;2023-12-14T06:13:22;3.30;99.90
67901;DHT22;54700;51.796;10.956;2023-12-14T06:15:50;3.30;99.90
67901;DHT22;54700;51.796;10.956;2023-12-14T06:18:19;3.30;99.90
67901;DHT22;54700;51.796;10.956;2023-12-14T06:20:48;3.30;99.90
67901;DHT22;54700;51.796;10.956;2023-12-14T06:23:15;3.30;99.90
67901;DHT22;54700;51.796;10.956;2023-12-14T06:25:42;3.20;99.90
67901;DHT22;54700;51.796;10.956;2023-12-14T06:28:09;3.20;99.90
67901;DHT22;54700;51.796;10.956;2023-12-14T06:30:36;3.10;99.90
67901;DHT22;54700;51.796;10.956;2023-12-14T06:33:03;3.10;99.90
67901;DHT22;54700;51.796;10.956;2023-12-14T06:35:31;3.00;99.90
67901;DHT22;54700;51.796;10.956;2023-12-14T06:37:59;3.00;99.90
67901;DHT22;54700;51.796;10.956;2023-12-14T06:40:26;3.00;99.90
67901;DHT22;54700;51.796;10.956;2023-12-14T06:43:03;3.00;99.90
67901;DHT22;54700;51.796;10.956;2023-12-14T06:45:30;3.00;99.90
67901;DHT22;54700;51.796;10.956;2023-12-14T06:47:58;3.00;99.90
67901;DHT22;54700;51.796;10.956;2023-12-14T06:50:25;3.00;99.90
67901;DHT22;54700;51.796;10.956;2023-12-14T06:52:55;3.00;99.90
67901;DHT22;54700;51.796;10.956;2023-12-14T06:55:26;3.00;99.90
67901;DHT22;54700;51.796;10.956;2023-12-14T06:58:00;3.00;99.90
67901;DHT22;54700;51.796;10.956;2023-12-14T07:00:27;3.00;99.90
67901;DHT22;54700;51.796;10.956;2023-12-14T07:02:55;3.00;99.90
67901;DHT22;54700;51.796;10.956;2023-12-14T07:05:22;3.00;99.90
67901;DHT22;54700;51.796;10.956;2023-12-14T07:07:49;3.00;99.90
67901;DHT22;54700;51.796;10.956;2023-12-14T07:10:20;3.00;99.90
67901;DHT22;54700;51.796;10.956;2023-12-14T07:12:48;2.90;99.90
67901;DHT22;54700;51.796;10.956;2023-12-14T07:15:15;2.90;99.90
67901;DHT22;54700;51.796;10.956;2023-12-14T07:17:42;2.90;99.90
67901;DHT22;54700;51.796;10.956;2023-12-14T07:20:09;2.90;99.90
67901;DHT22;54700;51.796;10.956;2023-12-14T07:22:37;3.00;99.90
67901;DHT22;54700;51.796;10.956;2023-12-14T07:25:03;3.00;99.90
67901;DHT22;54700;51.796;10.956;2023-12-14T07:27:31;3.00;99.90
67901;DHT22;54700;51.796;10.956;2023-12-14T07:30:02;3.00;99.90
67901;DHT22;54700;51.796;10.956;2023-12-14T07:32:29;3.00;99.90
67901;DHT22;54700;51.796;10.956;2023-12-14T07:34:59;3.00;99.90
67901;DHT22;54700;51.796;10.956;2023-12-14T07:37:27;2.90;99.90
67901;DHT22;54700;51.796;10.956;2023-12-14T07:39:54;2.90;99.90
67901;DHT22;54700;51.796;10.956;2023-12-14T07:42:23;2.90;99.90
67901;DHT22;54700;51.796;10.956;2023-12-14T07:44:51;2.80;99.90
67901;DHT22;54700;51.796;10.956;2023-12-14T07:47:19;2.80;99.90
67901;DHT22;54700;51.796;10.956;2023-12-14T07:49:49;2.80;99.90
67901;DHT22;54700;51.796;10.956;2023-12-14T07:52:16;2.80;99.90
67901;DHT22;54700;51.796;10.956;2023-12-14T07:54:46;2.80;99.90
67901;DHT22;54700;51.796;10.956;2023-12-14T07:57:16;2.80;99.90
67901;DHT22;54700;51.796;10.956;2023-12-14T07:59:52;2.80;99.90
67901;DHT22;54700;51.796;10.956;2023-12-14T08:02:20;2.80;99.90
67901;DHT22;54700;51.796;10.956;2023-12-14T08:04:48;2.80;99.90
67901;DHT22;54700;51.796;10.956;2023-12-14T08:07:15;2.90;99.90
67901;DHT22;54700;51.796;10.956;2023-12-14T08:09:44;2.90;99.90
67901;DHT22;54700;51.796;10.956;2023-12-14T08:12:11;2.90;99.90
67901;DHT22;54700;51.796;10.956;2023-12-14T08:14:47;2.90;99.90
67901;DHT22;54700;51.796;10.956;2023-12-14T08:17:14;2.90;99.90
67901;DHT22;54700;51.796;10.956;2023-12-14T08:19:43;2.90;99.90
67901;DHT22;54700;51.796;10.956;2023-12-14T08:22:11;2.90;99.90
67901;DHT22;54700;51.796;10.956;2023-12-14T08:24:41;2.90;99.90
67901;DHT22;54700;51.796;10.956;2023-12-14T08:27:08;3.00;99.90
67901;DHT22;54700;51.796;10.956;2023-12-14T08:29:35;3.00;99.90
67901;DHT22;54700;51.796;10.956;2023-12-14T08:32:02;3.00;99.90
67901;DHT22;54700;51.796;10.956;2023-12-14T08:34:29;3.00;99.90
67901;DHT22;54700;51.796;10.956;2023-12-14T08:36:57;3.00;99.90
67901;DHT22;54700;51.796;10.956;2023-12-14T08:39:24;3.00;99.90
67901;DHT22;54700;51.796;10.956;2023-12-14T08:41:52;3.00;99.90
67901;DHT22;54700;51.796;10.956;2023-12-14T08:44:19;3.00;99.90
67901;DHT22;54700;51.796;10.956;2023-12-14T08:46:50;3.00;99.90
67901;DHT22;54700;51.796;10.956;2023-12-14T08:49:25;3.00;99.90
67901;DHT22;54700;51.796;10.956;2023-12-14T08:52:05;3.00;99.90
67901;DHT22;54700;51.796;10.956;2023-12-14T08:54:35;3.00;99.90
67901;DHT22;54700;51.796;10.956;2023-12-14T08:57:04;3.10;99.90
67901;DHT22;54700;51.796;10.956;2023-12-14T08:59:37;3.10;99.90
67901;DHT22;54700;51.796;10.956;2023-12-14T09:02:06;3.10;99.90
67901;DHT22;54700;51.796;10.956;2023-12-14T09:04:35;3.10;99.90
67901;DHT22;54700;51.796;10.956;2023-12-14T09:07:04;3.00;99.90
67901;DHT22;54700;51.796;10.956;2023-12-14T09:09:31;3.00;99.90
67901;DHT22;54700;51.796;10.956;2023-12-14T09:12:01;3.00;99.90
67901;DHT22;54700;51.796;10.956;2023-12-14T09:14:28;3.00;99.90
67901;DHT22;54700;51.796;10.956;2023-12-14T09:16:59;3.00;99.90
67901;DHT22;54700;51.796;10.956;2023-12-14T09:19:30;3.00;99.90
67901;DHT22;54700;51.796;10.956;2023-12-14T09:21:57;3.00;99.90
67901;DHT22;54700;51.796;10.956;2023-12-14T09:24:27;3.00;99.90
67901;DHT22;54700;51.796;10.956;2023-12-14T09:26:57;3.00;99.90
67901;DHT22;54700;51.796;10.956;2023-12-14T09:29:27;3.00;99.90
67901;DHT22;54700;51.796;10.956;2023-12-14T09:31:54;3.00;99.90
67901;DHT22;54700;51.796;10.956;2023-12-14T09:34:21;3.00;99.90
67901;DHT22;54700;51.796;10.956;2023-12-14T09:36:48;2.90;99.90
67901;DHT22;54700;51.796;10.956;2023-12-14T09:39:15;2.90;99.90
67901;DHT22;54700;51.796;10.956;2023-12-14T09:41:46;3.00;99.90
67901;DHT22;54700;51.796;10.956;2023-12-14T09:44:13;2.90;99.90
67901;DHT22;54700;51.796;10.956;2023-12-14T09:46:40;2.90;99.90
67901;DHT22;54700;51.796;10.956;2023-12-14T09:49:14;2.90;99.90
67901;DHT22;54700;51.796;10.956;2023-12-14T09:51:54;2.90;99.90
67901;DHT22;54700;51.796;10.956;2023-12-14T09:54:22;2.90;99.90
67901;DHT22;54700;51.796;10.956;2023-12-14T09:56:56;2.90;99.90
67901;DHT22;54700;51.796;10.956;2023-12-14T09:59:25;3.00;99.90
67901;DHT22;54700;51.796;10.956;2023-12-14T10:01:53;3.00;99.90
67901;DHT22;54700;51.796;10.956;2023-12-14T10:04:35;3.00;99.90
67901;DHT22;54700;51.796;10.956;2023-12-14T10:07:02;3.00;99.90
67901;DHT22;54700;51.796;10.956;2023-12-14T10:09:32;3.10;99.90
67901;DHT22;54700;51.796;10.956;2023-12-14T10:12:06;3.10;99.90
67901;DHT22;54700;51.796;10.956;2023-12-14T10:14:35;3.00;99.90
67901;DHT22;54700;51.796;10.956;2023-12-14T10:17:17;3.00;99.90
67901;DHT22;54700;51.796;10.956;2023-12-14T10:19:45;2.90;99.90
67901;DHT22;54700;51.796;10.956;2023-12-14T10:22:13;2.90;99.90
67901;DHT22;54700;51.796;10.956;2023-12-14T10:24:43;2.90;99.90
67901;DHT22;54700;51.796;10.956;2023-12-14T10:27:18;3.00;99.90
67901;DHT22;54700;51.796;10.956;2023-12-14T10:29:49;3.00;99.90
67901;DHT22;54700;51.796;10.956;2023-12-14T10:32:16;3.10;99.90
67901;DHT22;54700;51.796;10.956;2023-12-14T10:34:51;3.10;99.90
67901;DHT22;54700;51.796;10.956;2023-12-14T10:37:18;3.00;99.90
67901;DHT22;54700;51.796;10.956;2023-12-14T10:40:00;3.00;99.90
67901;DHT22;54700;51.796;10.956;2023-12-14T10:42:39;3.00;99.90
67901;DHT22;54700;51.796;10.956;2023-12-14T10:46:45;3.00;99.90
67901;DHT22;54700;51.796;10.956;2023-12-14T10:51:06;2.90;99.90
67901;DHT22;54700;51.796;10.956;2023-12-14T10:53:47;2.90;99.90
67901;DHT22;54700;51.796;10.956;2023-12-14T10:59:34;2.90;99.90
67901;DHT22;54700;51.796;10.956;2023-12-14T11:05:00;2.90;99.90
67901;DHT22;54700;51.796;10.956;2023-12-14T11:07:47;2.90;99.90
67901;DHT22;54700;51.796;10.956;2023-12-14T11:10:22;2.90;99.90
67901;DHT22;54700;51.796;10.956;2023-12-14T11:12:56;2.90;99.90
67901;DHT22;54700;51.796;10.956;2023-12-14T11:15:29;3.00;99.90
67901;DHT22;54700;51.796;10.956;2023-12-14T11:20:56;2.90;99.90
67901;DHT22;54700;51.796;10.956;2023-12-14T11:23:26;3.00;99.90
67901;DHT22;54700;51.796;10.956;2023-12-14T11:26:04;3.00;99.90
67901;DHT22;54700;51.796;10.956;2023-12-14T11:28:37;3.00;99.90
67901;DHT22;54700;51.796;10.956;2023-12-14T11:31:13;3.00;99.90
67901;DHT22;54700;51.796;10.956;2023-12-14T11:33:40;3.00;99.90
67901;DHT22;54700;51.796;10.956;2023-12-14T11:36:10;3.00;99.90
67901;DHT22;54700;51.796;10.956;2023-12-14T11:38:41;3.00;99.90
67901;DHT22;54700;51.796;10.956;2023-12-14T11:41:10;3.00;99.90
67901;DHT22;54700;51.796;10.956;2023-12-14T11:43:41;3.00;99.90
67901;DHT22;54700;51.796;10.956;2023-12-14T11:46:08;3.00;99.90
67901;DHT22;54700;51.796;10.956;2023-12-14T11:48:37;3.00;99.90
67901;DHT22;54700;51.796;10.956;2023-12-14T11:51:04;2.90;99.90
67901;DHT22;54700;51.796;10.956;2023-12-14T11:53:32;2.90;99.90
67901;DHT22;54700;51.796;10.956;2023-12-14T11:56:16;2.90;99.90
67901;DHT22;54700;51.796;10.956;2023-12-14T11:58:44;2.90;99.90
67901;DHT22;54700;51.796;10.956;2023-12-14T12:01:13;2.90;99.90
67901;DHT22;54700;51.796;10.956;2023-12-14T12:03:45;2.90;99.90
67901;DHT22;54700;51.796;10.956;2023-12-14T12:06:20;2.90;99.90
67901;DHT22;54700;51.796;10.956;2023-12-14T12:08:48;2.90;99.90
67901;DHT22;54700;51.796;10.956;2023-12-14T12:11:16;2.90;99.90
67901;DHT22;54700;51.796;10.956;2023-12-14T12:13:44;2.90;99.90
67901;DHT22;54700;51.796;10.956;2023-12-14T12:16:16;3.00;99.90
67901;DHT22;54700;51.796;10.956;2023-12-14T12:18:51;3.00;99.90
67901;DHT22;54700;51.796;10.956;2023-12-14T12:21:19;3.00;99.90
67901;DHT22;54700;51.796;10.956;2023-12-14T12:23:48;3.00;99.90
67901;DHT22;54700;51.796;10.956;2023-12-14T12:26:17;3.00;99.90
67901;DHT22;54700;51.796;10.956;2023-12-14T12:28:44;3.00;99.90
67901;DHT22;54700;51.796;10.956;2023-12-14T12:31:14;3.00;99.90
67901;DHT22;54700;51.796;10.956;2023-12-14T12:33:43;3.00;99.90
67901;DHT22;54700;51.796;10.956;2023-12-14T12:36:20;3.10;99.90
67901;DHT22;54700;51.796;10.956;2023-12-14T12:38:49;3.10;99.90
67901;DHT22;54700;51.796;10.956;2023-12-14T12:41:17;3.10;99.90
67901;DHT22;54700;51.796;10.956;2023-12-14T12:43:45;3.10;99.90
67901;DHT22;54700;51.796;10.956;2023-12-14T12:46:12;3.20;99.90
67901;DHT22;54700;51.796;10.956;2023-12-14T12:48:39;3.10;99.90
67901;DHT22;54700;51.796;10.956;2023-12-14T12:51:06;3.20;99.90
67901;DHT22;54700;51.796;10.956;2023-12-14T12:53:37;3.10;99.90
67901;DHT22;54700;51.796;10.956;2023-12-14T12:56:04;3.10;99.90
67901;DHT22;54700;51.796;10.956;2023-12-14T12:58:31;3.10;99.90
67901;DHT22;54700;51.796;10.956;2023-12-14T13:00:58;3.10;99.90
67901;DHT22;54700;51.796;10.956;2023-12-14T13:03:26;3.10;99.90
67901;DHT22;54700;51.796;10.956;2023-12-14T13:06:00;3.10;99.90
67901;DHT22;54700;51.796;10.956;2023-12-14T13:08:28;3.10;99.90
67901;DHT22;54700;51.796;10.956;2023-12-14T13:10:57;3.00;99.90
67901;DHT22;54700;51.796;10.956;2023-12-14T13:13:25;3.00;99.90
67901;DHT22;54700;51.796;10.956;2023-12-14T13:15:59;3.00;99.90
67901;DHT22;54700;51.796;10.956;2023-12-14T13:18:26;3.00;99.90
67901;DHT22;54700;51.796;10.956;2023-12-14T13:20:53;3.00;99.90
67901;DHT22;54700;51.796;10.956;2023-12-14T13:23:20;3.10;99.90
67901;DHT22;54700;51.796;10.956;2023-12-14T13:25:47;3.10;99.90
67901;DHT22;54700;51.796;10.956;2023-12-14T13:28:16;3.10;99.90
67901;DHT22;54700;51.796;10.956;2023-12-14T13:30:43;3.10;99.90
67901;DHT22;54700;51.796;10.956;2023-12-14T13:33:10;3.10;99.90
67901;DHT22;54700;51.796;10.956;2023-12-14T13:35:40;3.10;99.90
67901;DHT22;54700;51.796;10.956;2023-12-14T13:38:08;3.10;99.90
67901;DHT22;54700;51.796;10.956;2023-12-14T13:40:35;3.10;99.90
67901;DHT22;54700;51.796;10.956;2023-12-14T13:43:02;3.10;99.90
67901;DHT22;54700;51.796;10.956;2023-12-14T13:45:36;3.10;99.90
67901;DHT22;54700;51.796;10.956;2023-12-14T13:48:04;3.10;99.90
67901;DHT22;54700;51.796;10.956;2023-12-14T13:50:35;3.10;99.90
67901;DHT22;54700;51.796;10.956;2023-12-14T13:53:02;3.10;99.90
67901;DHT22;54700;51.796;10.956;2023-12-14T13:55:30;3.10;99.90
67901;DHT22;54700;51.796;10.956;2023-12-14T13:57:57;3.10;99.90
67901;DHT22;54700;51.796;10.956;2023-12-14T14:00:26;3.10;99.90
67901;DHT22;54700;51.796;10.956;2023-12-14T14:02:55;3.10;99.90
67901;DHT22;54700;51.796;10.956;2023-12-14T14:05:22;3.10;99.90
67901;DHT22;54700;51.796;10.956;2023-12-14T14:07:52;3.10;99.90
67901;DHT22;54700;51.796;10.956;2023-12-14T14:10:29;3.10;99.90
67901;DHT22;54700;51.796;10.956;2023-12-14T14:12:57;3.10;99.90
67901;DHT22;54700;51.796;10.956;2023-12-14T14:15:25;3.10;99.90
67901;DHT22;54700;51.796;10.956;2023-12-14T14:17:52;3.10;99.90
67901;DHT22;54700;51.796;10.956;2023-12-14T14:20:21;3.10;99.90
67901;DHT22;54700;51.796;10.956;2023-12-14T14:22:49;3.10;99.90
67901;DHT22;54700;51.796;10.956;2023-12-14T14:25:17;3.10;99.90
67901;DHT22;54700;51.796;10.956;2023-12-14T14:27:44;3.10;99.90
67901;DHT22;54700;51.796;10.956;2023-12-14T14:30:13;3.10;99.90
67901;DHT22;54700;51.796;10.956;2023-12-14T14:32:41;3.10;99.90
67901;DHT22;54700;51.796;10.956;2023-12-14T14:35:08;3.10;99.90
67901;DHT22;54700;51.796;10.956;2023-12-14T14:37:36;3.10;99.90
67901;DHT22;54700;51.796;10.956;2023-12-14T14:40:10;3.10;99.90
67901;DHT22;54700;51.796;10.956;2023-12-14T14:42:41;3.10;99.90
67901;DHT22;54700;51.796;10.956;2023-12-14T14:45:08;3.10;99.90
67901;DHT22;54700;51.796;10.956;2023-12-14T14:47:38;3.20;99.90
67901;DHT22;54700;51.796;10.956;2023-12-14T14:50:09;3.20;99.90
67901;DHT22;54700;51.796;10.956;2023-12-14T14:52:43;3.20;99.90
67901;DHT22;54700;51.796;10.956;2023-12-14T14:55:11;3.20;99.90
67901;DHT22;54700;51.796;10.956;2023-12-14T14:57:40;3.20;99.90
67901;DHT22;54700;51.796;10.956;2023-12-14T15:00:08;3.20;99.90
67901;DHT22;54700;51.796;10.956;2023-12-14T15:02:35;3.10;99.90
67901;DHT22;54700;51.796;10.956;2023-12-14T15:05:02;3.10;99.90
67901;DHT22;54700;51.796;10.956;2023-12-14T15:07:29;3.20;99.90
67901;DHT22;54700;51.796;10.956;2023-12-14T15:09:57;3.20;99.90
67901;DHT22;54700;51.796;10.956;2023-12-14T15:12:24;3.20;99.90
67901;DHT22;54700;51.796;10.956;2023-12-14T15:14:51;3.20;99.90
67901;DHT22;54700;51.796;10.956;2023-12-14T15:17:19;3.10;99.90
67901;DHT22;54700;51.796;10.956;2023-12-14T15:19:47;3.10;99.90
67901;DHT22;54700;51.796;10.956;2023-12-14T15:22:14;3.10;99.90
67901;DHT22;54700;51.796;10.956;2023-12-14T15:24:41;3.10;99.90
67901;DHT22;54700;51.796;10.956;2023-12-14T15:27:12;3.10;99.90
67901;DHT22;54700;51.796;10.956;2023-12-14T15:29:40;3.10;99.90
67901;DHT22;54700;51.796;10.956;2023-12-14T15:32:07;3.10;99.90
67901;DHT22;54700;51.796;10.956;2023-12-14T15:34:34;3.10;99.90
67901;DHT22;54700;51.796;10.956;2023-12-14T15:37:01;3.10;99.90
67901;DHT22;54700;51.796;10.956;2023-12-14T15:39:28;3.10;99.90
67901;DHT22;54700;51.796;10.956;2023-12-14T15:41:55;3.10;99.90
67901;DHT22;54700;51.796;10.956;2023-12-14T15:44:23;3.10;99.90
67901;DHT22;54700;51.796;10.956;2023-12-14T15:46:50;3.10;99.90
67901;DHT22;54700;51.796;10.956;2023-12-14T15:49:17;3.10;99.90
67901;DHT22;54700;51.796;10.956;2023-12-14T15:51:46;3.10;99.90